Time;durP1;ratioP1;P1;durP2;ratioP2;P2;SDS_P1;SDS_P2;PMS_P1;PMS_P2;Temp;Humidity;BMP_temperature;BMP_pressure;BME280_temperature;BME280_humidity;BME280_pressure;Samples;Min_cycle;Max_cycle;Signal;HPM_P1;HPM_P2
2022/10/21 00:00:25;;;;;;;18.70;14.32;;;;;;;;;;5126399;28;20524;-68
2022/10/21 00:02:51;;;;;;;20.35;14.00;;;;;;;;;;5126269;28;20302;-68
2022/10/21 00:05:18;;;;;;;28.25;13.93;;;;;;;;;;5126012;28;20199;-68
2022/10/21 00:07:44;;;;;;;17.88;14.00;;;;;;;;;;5125788;28;20235;-68
2022/10/21 00:10:10;;;;;;;22.23;14.27;;;;;;;;;;5125870;27;20517;-68
2022/10/21 00:12:37;;;;;;;21.45;14.15;;;;;;;;;;5126135;28;20517;-68
2022/10/21 00:15:04;;;;;;;20.00;14.15;;;;;;;;;;5125951;28;20265;-68
2022/10/21 00:17:31;;;;;;;22.85;13.57;;;;;;;;;;5125778;27;20195;-68
2022/10/21 00:19:58;;;;;;;19.67;13.23;;;;;;;;;;5125750;28;20202;-68
2022/10/21 00:22:24;;;;;;;22.98;14.20;;;;;;;;;;5126167;28;20202;-68
2022/10/21 00:24:50;;;;;;;28.85;13.75;;;;;;;;;;5125976;28;20372;-68
2022/10/21 00:27:16;;;;;;;18.27;12.55;;;;;;;;;;5125853;27;20195;-68
2022/10/21 00:29:43;;;;;;;19.23;13.70;;;;;;;;;;5125630;28;20201;-68
2022/10/21 00:32:09;;;;;;;19.08;13.52;;;;;;;;;;5125662;27;20514;-68
2022/10/21 00:34:37;;;;;;;19.20;13.25;;;;;;;;;;5125537;28;20218;-68
2022/10/21 00:37:03;;;;;;;19.58;15.35;;;;;;;;;;5125694;28;20215;-68
2022/10/21 00:39:30;;;;;;;18.02;14.35;;;;;;;;;;5125716;28;20535;-68
2022/10/21 00:41:56;;;;;;;22.23;14.52;;;;;;;;;;5125697;28;20385;-68
2022/10/21 00:44:22;;;;;;;23.70;14.63;;;;;;;;;;5125634;28;20197;-68
2022/10/21 00:46:51;;;;;;;19.13;14.13;;;;;;;;;;5125505;28;20214;-68
2022/10/21 00:49:19;;;;;;;17.45;14.55;;;;;;;;;;5125251;28;20196;-68
2022/10/21 00:51:48;;;;;;;20.08;14.70;;;;;;;;;;5125137;27;20202;-68
2022/10/21 00:54:14;;;;;;;20.10;14.00;;;;;;;;;;5125326;27;20240;-68
2022/10/21 00:56:41;;;;;;;17.08;13.70;;;;;;;;;;5125204;28;20428;-68
2022/10/21 00:59:08;;;;;;;23.52;15.00;;;;;;;;;;5125038;28;20202;-68
2022/10/21 01:01:34;;;;;;;21.35;14.48;;;;;;;;;;5125052;28;20199;-69
2022/10/21 01:04:02;;;;;;;19.60;14.68;;;;;;;;;;5124989;28;20207;-69
2022/10/21 01:06:28;;;;;;;21.40;14.65;;;;;;;;;;5124956;28;20237;-68
2022/10/21 01:08:56;;;;;;;19.40;14.70;;;;;;;;;;5124385;28;20195;-68
2022/10/21 01:11:24;;;;;;;21.38;13.27;;;;;;;;;;5124774;28;20195;-68
2022/10/21 01:14:11;;;;;;;19.23;14.10;;;;;;;;;;5124864;28;20202;-68
2022/10/21 01:16:42;;;;;;;20.08;13.52;;;;;;;;;;5098796;28;20222;-68
2022/10/21 01:19:19;;;;;;;16.75;13.18;;;;;;;;;;5124807;28;20222;-68
2022/10/21 01:24:56;;;;;;;19.08;13.38;;;;;;;;;;5124118;28;20193;-68
2022/10/21 01:27:38;;;;;;;21.90;13.75;;;;;;;;;;5124487;28;20415;-68
2022/10/21 01:30:10;;;;;;;20.92;13.02;;;;;;;;;;5124774;28;20205;-68
2022/10/21 01:32:50;;;;;;;18.63;12.20;;;;;;;;;;5124340;28;20196;-68
2022/10/21 01:35:19;;;;;;;20.75;13.27;;;;;;;;;;5124425;28;20201;-68
2022/10/21 01:37:49;;;;;;;18.65;12.55;;;;;;;;;;5123816;28;20222;-68
2022/10/21 01:40:18;;;;;;;16.88;12.38;;;;;;;;;;5124336;28;20199;-68
2022/10/21 01:42:49;;;;;;;18.38;12.45;;;;;;;;;;5124670;28;20228;-68
2022/10/21 01:45:18;;;;;;;16.92;13.60;;;;;;;;;;5124336;27;20195;-68
2022/10/21 01:47:46;;;;;;;15.77;12.80;;;;;;;;;;5123930;28;20276;-68
2022/10/21 01:50:16;;;;;;;18.33;13.48;;;;;;;;;;5124058;28;20504;-68
2022/10/21 01:52:44;;;;;;;20.77;13.13;;;;;;;;;;5124248;28;20207;-68
2022/10/21 01:55:14;;;;;;;18.27;12.63;;;;;;;;;;5123998;27;20203;-68
2022/10/21 01:57:42;;;;;;;18.52;13.32;;;;;;;;;;5123750;28;20571;-68
2022/10/21 02:00:09;;;;;;;20.33;13.15;;;;;;;;;;5124031;28;20194;-68
2022/10/21 02:02:38;;;;;;;19.10;13.25;;;;;;;;;;5123786;28;20276;-68
2022/10/21 02:05:07;;;;;;;18.38;11.38;;;;;;;;;;5123729;28;20190;-68
2022/10/21 02:07:35;;;;;;;17.70;12.57;;;;;;;;;;5123907;28;20377;-68
2022/10/21 02:10:01;;;;;;;24.02;11.95;;;;;;;;;;5123855;28;20203;-68
2022/10/21 02:12:29;;;;;;;18.83;11.88;;;;;;;;;;5123900;28;20195;-68
2022/10/21 02:14:57;;;;;;;23.30;13.43;;;;;;;;;;5123607;27;20206;-68
2022/10/21 02:17:26;;;;;;;29.33;13.20;;;;;;;;;;5123391;27;20219;-68
2022/10/21 02:19:53;;;;;;;18.40;13.27;;;;;;;;;;5122585;28;20196;-68
2022/10/21 02:22:21;;;;;;;17.13;12.13;;;;;;;;;;5123720;28;20202;-68
2022/10/21 02:24:51;;;;;;;18.70;13.15;;;;;;;;;;5123510;28;20195;-68
2022/10/21 02:27:17;;;;;;;22.52;13.85;;;;;;;;;;5123434;27;20191;-68
2022/10/21 02:29:44;;;;;;;20.65;13.85;;;;;;;;;;5123209;28;20195;-68
2022/10/21 02:32:16;;;;;;;20.48;14.80;;;;;;;;;;5123590;28;20486;-68
2022/10/21 02:34:48;;;;;;;22.15;14.60;;;;;;;;;;5123293;28;20187;-68
2022/10/21 02:37:19;;;;;;;19.88;13.00;;;;;;;;;;5123277;28;20222;-68
2022/10/21 02:39:48;;;;;;;16.52;13.10;;;;;;;;;;5122986;28;20205;-68
2022/10/21 02:42:19;;;;;;;21.60;13.93;;;;;;;;;;5123250;28;20202;-68
2022/10/21 02:44:45;;;;;;;21.27;14.50;;;;;;;;;;5123240;28;20205;-68
2022/10/21 02:47:11;;;;;;;22.50;15.95;;;;;;;;;;5123281;28;20273;-68
2022/10/21 02:49:38;;;;;;;22.33;15.35;;;;;;;;;;5122860;28;20195;-68
2022/10/21 02:52:04;;;;;;;18.92;14.35;;;;;;;;;;5123192;28;20201;-68
2022/10/21 02:54:30;;;;;;;22.67;14.88;;;;;;;;;;5122928;28;20199;-68
2022/10/21 02:56:56;;;;;;;19.60;15.25;;;;;;;;;;5122799;28;20556;-68
2022/10/21 02:59:24;;;;;;;22.17;14.27;;;;;;;;;;5122894;28;20195;-68
2022/10/21 03:01:51;;;;;;;15.93;13.23;;;;;;;;;;5122955;28;20195;-68
2022/10/21 03:04:17;;;;;;;24.77;14.65;;;;;;;;;;5123092;28;20448;-68
2022/10/21 03:06:43;;;;;;;22.48;13.82;;;;;;;;;;5122945;28;20195;-68
2022/10/21 03:09:10;;;;;;;18.17;13.95;;;;;;;;;;5122532;28;20195;-68
2022/10/21 03:11:36;;;;;;;19.20;13.52;;;;;;;;;;5122593;28;20203;-68
2022/10/21 03:14:02;;;;;;;26.33;15.43;;;;;;;;;;5122659;28;20203;-68
2022/10/21 03:16:30;;;;;;;20.98;14.38;;;;;;;;;;5122773;28;20443;-68
2022/10/21 03:18:56;;;;;;;17.85;13.57;;;;;;;;;;5122424;28;20206;-68
2022/10/21 03:21:22;;;;;;;21.65;13.85;;;;;;;;;;5123103;28;20198;-68
2022/10/21 03:23:49;;;;;;;22.77;14.65;;;;;;;;;;5122610;28;20217;-68
2022/10/21 03:26:15;;;;;;;19.77;13.80;;;;;;;;;;5122520;28;20201;-68
2022/10/21 03:28:41;;;;;;;18.75;14.07;;;;;;;;;;5122449;28;20215;-68
2022/10/21 03:31:07;;;;;;;23.85;16.60;;;;;;;;;;5122264;28;20194;-68
2022/10/21 03:33:35;;;;;;;28.45;14.80;;;;;;;;;;5122535;28;20195;-68
2022/10/21 03:36:01;;;;;;;20.13;15.63;;;;;;;;;;5122180;28;20191;-68
2022/10/21 03:38:28;;;;;;;44.53;26.13;;;;;;;;;;5121966;28;20218;-68
2022/10/21 03:40:54;;;;;;;36.03;23.30;;;;;;;;;;5122371;28;20203;-68
2022/10/21 03:43:20;;;;;;;40.72;26.65;;;;;;;;;;5122468;28;20195;-68
2022/10/21 03:45:47;;;;;;;31.40;22.08;;;;;;;;;;5122478;28;20510;-68
2022/10/21 03:48:13;;;;;;;29.52;20.15;;;;;;;;;;5121974;28;20198;-68
2022/10/21 03:50:41;;;;;;;31.40;20.85;;;;;;;;;;5122216;28;20203;-68
2022/10/21 03:53:07;;;;;;;24.92;18.85;;;;;;;;;;5122191;28;20202;-68
2022/10/21 03:55:33;;;;;;;26.77;18.92;;;;;;;;;;5122354;28;20201;-68
2022/10/21 03:57:59;;;;;;;37.25;21.48;;;;;;;;;;5122146;28;20222;-68
2022/10/21 04:00:26;;;;;;;32.10;21.85;;;;;;;;;;5122250;28;20241;-68
2022/10/21 04:02:52;;;;;;;29.58;20.90;;;;;;;;;;5121947;28;20195;-68
2022/10/21 04:05:18;;;;;;;31.23;20.95;;;;;;;;;;5122052;28;20195;-68
2022/10/21 04:07:46;;;;;;;34.28;20.30;;;;;;;;;;5121683;28;20198;-68
2022/10/21 04:10:12;;;;;;;25.52;19.50;;;;;;;;;;5122183;28;20199;-68
2022/10/21 04:12:38;;;;;;;29.38;19.38;;;;;;;;;;5122104;28;20260;-68
2022/10/21 04:15:06;;;;;;;33.45;19.83;;;;;;;;;;5122143;28;20517;-68
2022/10/21 04:17:32;;;;;;;28.63;19.05;;;;;;;;;;5121835;28;20406;-68
2022/10/21 04:19:59;;;;;;;23.17;17.70;;;;;;;;;;5121805;28;20385;-68
2022/10/21 04:22:25;;;;;;;27.92;16.90;;;;;;;;;;5121906;28;20195;-68
2022/10/21 04:24:52;;;;;;;27.58;17.08;;;;;;;;;;5121916;28;20196;-68
2022/10/21 04:27:19;;;;;;;23.10;16.77;;;;;;;;;;5122050;28;20387;-68
2022/10/21 04:29:45;;;;;;;23.63;16.63;;;;;;;;;;5121806;28;20202;-68
2022/10/21 04:32:11;;;;;;;25.77;16.42;;;;;;;;;;5121962;28;20195;-68
2022/10/21 04:34:38;;;;;;;23.15;16.27;;;;;;;;;;5121902;28;20202;-68
2022/10/21 04:37:04;;;;;;;26.73;16.85;;;;;;;;;;5121621;28;20391;-68
2022/10/21 04:39:30;;;;;;;43.47;24.35;;;;;;;;;;5121794;28;20282;-69
2022/10/21 04:41:58;;;;;;;27.25;18.13;;;;;;;;;;5121812;28;20199;-68
2022/10/21 04:44:24;;;;;;;27.63;18.35;;;;;;;;;;5125072;28;20195;-68
2022/10/21 04:46:50;;;;;;;29.23;18.65;;;;;;;;;;5125494;28;20195;-68
2022/10/21 04:49:17;;;;;;;30.38;18.60;;;;;;;;;;5125189;28;20191;-68
2022/10/21 04:51:43;;;;;;;28.23;16.63;;;;;;;;;;5125341;28;20199;-68
2022/10/21 04:54:09;;;;;;;23.13;17.08;;;;;;;;;;5125487;28;20203;-68
2022/10/21 04:56:35;;;;;;;29.45;16.73;;;;;;;;;;5125403;28;20205;-68
2022/10/21 04:59:03;;;;;;;21.15;16.45;;;;;;;;;;5125102;28;20195;-68
2022/10/21 05:01:29;;;;;;;28.25;16.92;;;;;;;;;;5125358;28;20203;-68
2022/10/21 05:03:56;;;;;;;22.85;15.93;;;;;;;;;;5125147;27;20213;-69
2022/10/21 05:06:22;;;;;;;25.38;16.95;;;;;;;;;;5125009;28;20426;-69
2022/10/21 05:08:48;;;;;;;21.23;17.30;;;;;;;;;;5125069;28;20215;-68
2022/10/21 05:11:14;;;;;;;20.70;16.20;;;;;;;;;;5124916;28;20490;-68
2022/10/21 05:13:41;;;;;;;21.88;16.10;;;;;;;;;;5124612;28;20202;-68
2022/10/21 05:16:08;;;;;;;26.95;16.95;;;;;;;;;;5124578;28;20210;-68
2022/10/21 05:18:35;;;;;;;24.05;15.82;;;;;;;;;;5124300;28;20416;-68
2022/10/21 05:21:01;;;;;;;27.17;16.98;;;;;;;;;;5124751;28;20209;-68
2022/10/21 05:23:27;;;;;;;23.00;15.75;;;;;;;;;;5124516;28;20195;-68
2022/10/21 05:25:54;;;;;;;24.95;16.13;;;;;;;;;;5124485;28;20199;-68
2022/10/21 05:28:20;;;;;;;21.83;15.93;;;;;;;;;;5124182;28;20217;-68
2022/10/21 05:30:47;;;;;;;22.98;14.10;;;;;;;;;;5124226;28;20206;-69
2022/10/21 05:33:15;;;;;;;22.00;15.70;;;;;;;;;;5124081;27;20397;-59
2022/10/21 05:35:41;;;;;;;17.20;14.25;;;;;;;;;;5106660;28;20533;-57
2022/10/21 05:38:07;;;;;;;23.33;14.95;;;;;;;;;;5106649;28;20272;-57
2022/10/21 05:40:34;;;;;;;25.52;14.95;;;;;;;;;;5117734;28;20210;-58
2022/10/21 05:43:00;;;;;;;24.55;15.68;;;;;;;;;;5118222;27;20231;-58
2022/10/21 05:45:26;;;;;;;24.23;14.57;;;;;;;;;;5116230;28;20391;-58
2022/10/21 05:47:53;;;;;;;29.42;16.45;;;;;;;;;;5114370;28;20248;-58
2022/10/21 05:50:20;;;;;;;28.65;15.52;;;;;;;;;;5113727;28;20207;-57
2022/10/21 05:52:47;;;;;;;23.50;15.27;;;;;;;;;;5116481;28;20214;-59
2022/10/21 05:55:13;;;;;;;23.58;16.00;;;;;;;;;;5115643;28;20210;-58
2022/10/21 05:57:39;;;;;;;21.83;15.43;;;;;;;;;;5115325;28;20242;-56
2022/10/21 06:00:06;;;;;;;27.35;14.95;;;;;;;;;;5115747;28;20495;-57
2022/10/21 06:02:33;;;;;;;21.55;15.50;;;;;;;;;;5115958;28;20408;-57
2022/10/21 06:04:59;;;;;;;24.95;14.30;;;;;;;;;;5116191;28;20215;-57
2022/10/21 06:07:27;;;;;;;23.30;14.93;;;;;;;;;;5116134;28;20207;-57
2022/10/21 06:09:53;;;;;;;24.38;15.02;;;;;;;;;;5116749;28;20302;-58
2022/10/21 06:12:19;;;;;;;33.20;15.15;;;;;;;;;;5117031;28;20215;-58
2022/10/21 06:14:45;;;;;;;22.33;13.88;;;;;;;;;;5116052;28;20219;-58
2022/10/21 06:17:12;;;;;;;22.33;13.98;;;;;;;;;;5115956;28;20464;-58
2022/10/21 06:19:38;;;;;;;21.90;14.10;;;;;;;;;;5116521;28;20234;-58
2022/10/21 06:22:04;;;;;;;26.45;13.65;;;;;;;;;;5116862;28;20218;-58
2022/10/21 06:24:32;;;;;;;22.13;13.77;;;;;;;;;;5116447;28;20618;-58
2022/10/21 06:26:58;;;;;;;23.08;13.48;;;;;;;;;;5116452;28;20317;-58
2022/10/21 06:29:26;;;;;;;19.50;13.50;;;;;;;;;;5116096;28;20674;-59
2022/10/21 06:31:52;;;;;;;25.23;14.98;;;;;;;;;;5116354;28;20448;-59
2022/10/21 06:34:18;;;;;;;20.63;14.15;;;;;;;;;;5113403;28;20218;-59
2022/10/21 06:36:45;;;;;;;20.17;13.57;;;;;;;;;;5116076;28;20218;-58
2022/10/21 06:39:11;;;;;;;18.08;13.93;;;;;;;;;;5114897;28;20234;-58
2022/10/21 06:41:39;;;;;;;25.45;14.68;;;;;;;;;;5116637;28;20611;-58
2022/10/21 06:44:05;;;;;;;25.17;14.50;;;;;;;;;;5115732;28;20207;-59
2022/10/21 06:46:31;;;;;;;21.77;14.00;;;;;;;;;;5115647;28;20211;-59
2022/10/21 06:48:58;;;;;;;23.75;14.13;;;;;;;;;;5115059;28;20215;-58
2022/10/21 06:51:24;;;;;;;20.58;13.30;;;;;;;;;;5115388;28;20211;-58
2022/10/21 06:53:51;;;;;;;23.65;14.80;;;;;;;;;;5116363;28;20207;-57
2022/10/21 06:56:18;;;;;;;24.95;14.50;;;;;;;;;;5115163;28;20211;-58
2022/10/21 06:58:48;;;;;;;25.77;14.35;;;;;;;;;;5115545;27;20469;-60
2022/10/21 07:01:15;;;;;;;33.17;15.70;;;;;;;;;;5115602;28;20509;-57
2022/10/21 07:03:41;;;;;;;24.58;14.73;;;;;;;;;;5116639;28;20214;-60
2022/10/21 07:06:08;;;;;;;30.75;16.65;;;;;;;;;;5114689;28;20210;-60
2022/10/21 07:08:35;;;;;;;29.73;16.25;;;;;;;;;;5115846;28;20429;-59
2022/10/21 07:11:01;;;;;;;27.98;15.30;;;;;;;;;;5115903;28;20237;-58
2022/10/21 07:13:28;;;;;;;24.25;15.32;;;;;;;;;;5115288;28;20244;-58
2022/10/21 07:15:59;;;;;;;27.17;15.88;;;;;;;;;;5114991;28;20225;-58
2022/10/21 07:18:26;;;;;;;24.10;15.27;;;;;;;;;;5114908;28;20277;-59
2022/10/21 07:20:52;;;;;;;25.80;16.08;;;;;;;;;;5115097;28;20211;-59
2022/10/21 07:23:18;;;;;;;21.77;15.35;;;;;;;;;;5115556;28;20418;-59
2022/10/21 07:25:44;;;;;;;28.88;15.10;;;;;;;;;;5115138;27;20218;-58
2022/10/21 07:28:11;;;;;;;27.23;15.23;;;;;;;;;;5115038;28;20234;-58
2022/10/21 07:30:38;;;;;;;24.33;14.57;;;;;;;;;;5115996;28;20210;-58
2022/10/21 07:33:06;;;;;;;21.40;13.35;;;;;;;;;;5116198;28;20214;-59
2022/10/21 07:35:32;;;;;;;24.65;13.73;;;;;;;;;;5115463;28;20550;-59
2022/10/21 07:37:59;;;;;;;27.38;14.30;;;;;;;;;;5115239;28;20231;-59
2022/10/21 07:40:27;;;;;;;24.98;15.23;;;;;;;;;;5115237;28;20213;-59
2022/10/21 07:42:53;;;;;;;24.55;15.50;;;;;;;;;;5115715;28;20285;-60
2022/10/21 07:45:19;;;;;;;29.67;15.35;;;;;;;;;;5115166;28;20215;-59
2022/10/21 07:47:46;;;;;;;27.27;14.80;;;;;;;;;;5114729;28;20207;-59
2022/10/21 07:50:14;;;;;;;23.35;13.90;;;;;;;;;;5114694;28;20429;-57
2022/10/21 07:52:44;;;;;;;22.77;14.57;;;;;;;;;;5115072;28;20451;-58
2022/10/21 07:55:10;;;;;;;22.08;13.90;;;;;;;;;;5115493;28;20245;-58
2022/10/21 07:57:36;;;;;;;28.38;17.35;;;;;;;;;;5114459;28;20218;-59
2022/10/21 08:00:08;;;;;;;54.33;32.95;;;;;;;;;;5116139;28;20328;-59
2022/10/21 08:02:34;;;;;;;32.65;18.00;;;;;;;;;;5115443;28;20217;-60
2022/10/21 08:05:00;;;;;;;26.30;14.90;;;;;;;;;;5115214;28;20424;-59
2022/10/21 08:07:30;;;;;;;27.73;13.38;;;;;;;;;;5115408;28;20203;-59
2022/10/21 08:09:56;;;;;;;22.50;14.38;;;;;;;;;;5115151;28;20218;-61
2022/10/21 08:12:22;;;;;;;24.88;12.50;;;;;;;;;;5115074;28;20211;-59
2022/10/21 08:14:49;;;;;;;18.40;11.63;;;;;;;;;;5115802;28;20251;-59
2022/10/21 08:17:15;;;;;;;25.13;12.25;;;;;;;;;;5114287;28;20526;-60
2022/10/21 08:19:41;;;;;;;15.60;10.10;;;;;;;;;;5118546;28;20238;-60
2022/10/21 08:22:08;;;;;;;18.65;10.38;;;;;;;;;;5118845;28;20217;-59
2022/10/21 08:24:35;;;;;;;14.10;9.20;;;;;;;;;;5118776;28;20218;-60
2022/10/21 08:27:03;;;;;;;13.77;9.07;;;;;;;;;;5118204;28;20560;-60
2022/10/21 08:29:30;;;;;;;20.27;9.90;;;;;;;;;;5119076;28;20240;-61
2022/10/21 08:31:56;;;;;;;15.10;9.27;;;;;;;;;;5118476;28;20207;-60
2022/10/21 08:34:23;;;;;;;19.70;10.00;;;;;;;;;;5117882;28;20203;-58
2022/10/21 08:36:49;;;;;;;32.75;24.20;;;;;;;;;;5118999;28;20206;-58
2022/10/21 08:39:15;;;;;;;21.75;15.73;;;;;;;;;;5117756;28;20510;-58
2022/10/21 08:41:48;;;;;;;21.73;13.75;;;;;;;;;;5117861;28;21185;-56
2022/10/21 08:44:20;;;;;;;26.80;13.32;;;;;;;;;;5118176;28;20591;-57
2022/10/21 08:46:49;;;;;;;21.02;12.43;;;;;;;;;;5118078;28;20207;-57
2022/10/21 08:49:17;;;;;;;20.38;11.60;;;;;;;;;;5118380;28;20537;-58
2022/10/21 08:51:46;;;;;;;24.48;12.85;;;;;;;;;;5118344;28;20211;-58
2022/10/21 08:54:14;;;;;;;25.25;13.07;;;;;;;;;;5118185;27;20530;-58
2022/10/21 08:56:41;;;;;;;24.70;12.38;;;;;;;;;;5117801;28;20510;-57
2022/10/21 08:59:17;;;;;;;20.70;12.35;;;;;;;;;;5117201;28;20258;-57
2022/10/21 09:01:46;;;;;;;23.40;12.05;;;;;;;;;;5118180;27;20202;-58
2022/10/21 09:04:15;;;;;;;22.00;12.25;;;;;;;;;;5119289;28;20206;-58
2022/10/21 09:06:49;;;;;;;26.42;12.98;;;;;;;;;;5118503;28;20211;-58
2022/10/21 09:09:19;;;;;;;24.48;15.15;;;;;;;;;;5118757;28;20214;-60
2022/10/21 09:11:53;;;;;;;22.90;13.35;;;;;;;;;;5119277;28;20211;-60
2022/10/21 09:14:38;;;;;;;31.02;12.82;;;;;;;;;;5119344;28;20213;-60
2022/10/21 09:17:11;;;;;;;22.17;11.80;;;;;;;;;;5118711;28;20415;-60
2022/10/21 09:19:41;;;;;;;25.73;12.07;;;;;;;;;;5118504;28;20218;-60
2022/10/21 09:22:14;;;;;;;25.63;12.15;;;;;;;;;;5118577;28;20233;-60
2022/10/21 09:24:43;;;;;;;21.33;11.73;;;;;;;;;;5118989;28;20518;-60
2022/10/21 09:27:10;;;;;;;23.63;11.10;;;;;;;;;;5118482;28;20211;-60
2022/10/21 09:29:40;;;;;;;22.73;11.63;;;;;;;;;;5118336;28;20211;-60
2022/10/21 09:32:12;;;;;;;17.35;10.82;;;;;;;;;;5119346;28;20207;-60
2022/10/21 09:34:47;;;;;;;13.98;11.40;;;;;;;;;;5118998;28;20215;-60
2022/10/21 09:37:17;;;;;;;21.25;12.32;;;;;;;;;;5118312;28;20219;-60
2022/10/21 09:39:46;;;;;;;17.73;11.35;;;;;;;;;;5118425;28;20556;-60
2022/10/21 09:42:13;;;;;;;18.27;11.77;;;;;;;;;;5118377;28;20452;-60
2022/10/21 09:44:43;;;;;;;19.42;12.18;;;;;;;;;;5118715;28;20233;-60
2022/10/21 09:47:15;;;;;;;20.95;10.75;;;;;;;;;;5117930;28;20217;-60
2022/10/21 09:49:45;;;;;;;20.60;11.50;;;;;;;;;;5118048;28;20482;-60
2022/10/21 09:52:11;;;;;;;21.00;10.88;;;;;;;;;;5118182;27;20215;-60
2022/10/21 09:54:39;;;;;;;19.20;10.43;;;;;;;;;;5117809;27;20406;-60
2022/10/21 09:57:11;;;;;;;17.33;10.05;;;;;;;;;;5117107;28;20219;-60
2022/10/21 09:59:51;;;;;;;16.80;10.13;;;;;;;;;;5117906;28;20229;-60
2022/10/21 10:02:22;;;;;;;15.43;8.38;;;;;;;;;;5118275;28;20211;-59
2022/10/21 10:04:48;;;;;;;17.55;9.35;;;;;;;;;;5118226;28;20203;-59
2022/10/21 10:07:19;;;;;;;17.27;9.13;;;;;;;;;;5117956;28;20203;-60
2022/10/21 10:09:46;;;;;;;12.75;8.20;;;;;;;;;;5117608;28;20207;-60
2022/10/21 10:12:13;;;;;;;14.02;9.18;;;;;;;;;;5117657;28;20218;-60
2022/10/21 10:14:41;;;;;;;14.55;8.93;;;;;;;;;;5117890;28;20540;-60
2022/10/21 10:17:25;;;;;;;13.90;8.68;;;;;;;;;;5116776;28;20210;-58
2022/10/21 10:20:21;;;;;;;10.10;8.13;;;;;;;;;;5116928;28;20252;-60
2022/10/21 10:23:07;;;;;;;14.50;7.88;;;;;;;;;;5054460;28;20280;-60
2022/10/21 10:25:34;;;;;;;13.02;8.60;;;;;;;;;;5110816;28;20517;-60
2022/10/21 10:28:02;;;;;;;14.48;7.63;;;;;;;;;;5116906;28;20227;-60
2022/10/21 10:30:35;;;;;;;12.88;7.72;;;;;;;;;;5117681;28;20210;-59
2022/10/21 10:33:07;;;;;;;17.95;8.68;;;;;;;;;;5117306;28;20213;-60
2022/10/21 10:35:35;;;;;;;17.10;8.30;;;;;;;;;;5117150;28;20219;-60
2022/10/21 10:38:02;;;;;;;15.82;9.15;;;;;;;;;;5117041;28;20215;-60
2022/10/21 10:40:31;;;;;;;17.38;9.07;;;;;;;;;;5116269;28;20257;-58
2022/10/21 10:43:00;;;;;;;15.27;9.20;;;;;;;;;;5117119;28;20248;-58
2022/10/21 10:45:26;;;;;;;17.77;10.23;;;;;;;;;;5116030;28;20741;-56
2022/10/21 10:47:54;;;;;;;17.02;9.50;;;;;;;;;;5116597;28;20209;-58
2022/10/21 10:50:39;;;;;;;15.48;9.15;;;;;;;;;;5116577;28;20211;-58
2022/10/21 10:53:24;;;;;;;22.92;9.65;;;;;;;;;;5117078;28;20283;-58
2022/10/21 10:55:55;;;;;;;14.52;8.80;;;;;;;;;;5117269;27;20218;-58
2022/10/21 10:58:23;;;;;;;18.77;9.30;;;;;;;;;;5116587;28;20215;-59
2022/10/21 11:00:50;;;;;;;15.15;7.80;;;;;;;;;;5117684;28;20405;-59
2022/10/21 11:03:21;;;;;;;17.13;8.20;;;;;;;;;;5116930;28;20494;-58
2022/10/21 11:05:49;;;;;;;14.82;7.45;;;;;;;;;;5117255;28;20214;-58
2022/10/21 11:08:17;;;;;;;13.68;6.35;;;;;;;;;;5116882;28;20405;-58
2022/10/21 11:10:45;;;;;;;6.28;3.88;;;;;;;;;;5116083;28;20199;-58
2022/10/21 11:13:14;;;;;;;6.47;4.03;;;;;;;;;;5116568;28;20210;-58
2022/10/21 11:15:50;;;;;;;8.93;4.00;;;;;;;;;;5116308;28;20765;-59
2022/10/21 11:18:18;;;;;;;7.30;4.22;;;;;;;;;;5116351;28;20518;-58
2022/10/21 11:20:50;;;;;;;9.15;4.07;;;;;;;;;;5116758;28;20234;-59
2022/10/21 11:23:25;;;;;;;5.10;4.13;;;;;;;;;;5116885;28;20215;-59
2022/10/21 11:25:54;;;;;;;4.88;3.50;;;;;;;;;;5116320;28;20218;-60
2022/10/21 11:28:25;;;;;;;7.35;3.85;;;;;;;;;;5115352;28;20231;-58
2022/10/21 11:30:59;;;;;;;6.85;3.97;;;;;;;;;;5116161;28;20203;-59
2022/10/21 11:33:30;;;;;;;6.10;4.10;;;;;;;;;;5115224;28;20217;-59
2022/10/21 11:36:00;;;;;;;7.90;3.80;;;;;;;;;;5116126;28;20215;-59
2022/10/21 11:38:37;;;;;;;5.82;2.75;;;;;;;;;;5115436;28;20237;-59
2022/10/21 11:41:09;;;;;;;8.13;2.85;;;;;;;;;;5116077;28;20306;-59
2022/10/21 11:43:44;;;;;;;6.22;3.17;;;;;;;;;;5115789;28;20218;-59
2022/10/21 11:46:13;;;;;;;5.82;2.80;;;;;;;;;;5115364;28;20210;-58
2022/10/21 11:48:49;;;;;;;7.72;3.10;;;;;;;;;;5115440;28;20211;-59
2022/10/21 11:51:22;;;;;;;5.40;2.47;;;;;;;;;;5115921;28;20214;-59
2022/10/21 11:53:55;;;;;;;5.55;2.63;;;;;;;;;;5120449;28;20214;-61
2022/10/21 11:56:27;;;;;;;4.18;2.10;;;;;;;;;;5119974;28;20219;-61
2022/10/21 11:59:00;;;;;;;7.15;2.28;;;;;;;;;;5119814;28;20534;-61
2022/10/21 12:01:32;;;;;;;4.05;2.20;;;;;;;;;;5120347;28;20429;-59
2022/10/21 12:04:21;;;;;;;6.15;1.70;;;;;;;;;;5120484;28;20211;-58
2022/10/21 12:06:51;;;;;;;5.13;2.10;;;;;;;;;;5119905;28;20218;-58
2022/10/21 12:09:19;;;;;;;2.33;1.60;;;;;;;;;;5119758;28;20207;-58
2022/10/21 12:11:47;;;;;;;6.70;1.98;;;;;;;;;;5120627;28;20541;-59
2022/10/21 12:14:22;;;;;;;4.32;2.10;;;;;;;;;;5119633;28;20218;-59
2022/10/21 12:16:49;;;;;;;2.88;2.15;;;;;;;;;;5119530;28;20217;-58
2022/10/21 12:19:16;;;;;;;5.38;2.00;;;;;;;;;;5119515;28;20237;-58
2022/10/21 12:21:44;;;;;;;5.30;3.10;;;;;;;;;;5115720;28;20530;-57
2022/10/21 12:24:14;;;;;;;6.47;3.88;;;;;;;;;;5118949;28;20219;-59
2022/10/21 12:26:42;;;;;;;9.63;4.30;;;;;;;;;;5099179;28;20215;-59
2022/10/21 12:29:12;;;;;;;5.88;3.80;;;;;;;;;;5111368;28;20234;-60
2022/10/21 12:31:45;;;;;;;3.47;2.95;;;;;;;;;;5119462;28;20198;-60
2022/10/21 12:34:12;;;;;;;7.90;2.25;;;;;;;;;;5119273;28;20211;-59
2022/10/21 12:36:42;;;;;;;3.67;2.28;;;;;;;;;;5119405;28;20215;-59
2022/10/21 12:39:16;;;;;;;4.53;2.50;;;;;;;;;;5119194;28;20237;-58
2022/10/21 12:41:43;;;;;;;5.28;2.85;;;;;;;;;;5119887;28;20206;-58
2022/10/21 12:44:25;;;;;;;3.85;1.60;;;;;;;;;;5119667;28;20211;-59
2022/10/21 12:46:55;;;;;;;1.98;1.83;;;;;;;;;;5119549;28;20206;-59
2022/10/21 12:49:23;;;;;;;1.70;1.60;;;;;;;;;;5118881;28;20214;-59
2022/10/21 12:51:51;;;;;;;2.15;1.48;;;;;;;;;;5119029;28;20521;-59
2022/10/21 12:54:20;;;;;;;3.72;2.72;;;;;;;;;;5119529;27;20211;-58
2022/10/21 12:56:47;;;;;;;5.40;1.70;;;;;;;;;;5118667;28;20214;-58
2022/10/21 12:59:27;;;;;;;3.30;1.42;;;;;;;;;;5118607;27;20242;-58
2022/10/21 13:02:18;;;;;;;1.63;1.15;;;;;;;;;;5118453;28;20214;-59
2022/10/21 13:04:46;;;;;;;2.20;1.23;;;;;;;;;;5117265;28;20211;-59
2022/10/21 13:07:27;;;;;;;1.85;1.00;;;;;;;;;;5117602;28;20473;-57
2022/10/21 13:10:16;;;;;;;1.30;1.20;;;;;;;;;;5118335;28;20207;-59
2022/10/21 13:12:42;;;;;;;4.00;1.80;;;;;;;;;;5118779;28;20215;-58
2022/10/21 13:15:23;;;;;;;4.57;1.23;;;;;;;;;;5118731;28;20233;-58
2022/10/21 13:17:52;;;;;;;1.50;1.20;;;;;;;;;;5117454;28;20217;-58
2022/10/21 13:20:38;;;;;;;4.65;1.80;;;;;;;;;;5118954;28;20238;-58
2022/10/21 13:23:23;;;;;;;11.30;6.35;;;;;;;;;;5118885;28;20391;-59
2022/10/21 13:26:03;;;;;;;3.90;1.88;;;;;;;;;;5118659;28;20213;-58
2022/10/21 13:28:30;;;;;;;7.57;6.80;;;;;;;;;;5118167;28;20234;-59
2022/10/21 13:30:58;;;;;;;3.38;2.80;;;;;;;;;;5118851;28;20514;-58
2022/10/21 13:33:26;;;;;;;5.72;3.67;;;;;;;;;;5118606;28;20214;-58
2022/10/21 13:35:53;;;;;;;10.65;7.45;;;;;;;;;;5118552;28;20211;-58
2022/10/21 13:38:22;;;;;;;11.52;7.38;;;;;;;;;;5118181;28;20573;-58
2022/10/21 13:40:49;;;;;;;3.17;1.45;;;;;;;;;;5117592;28;20226;-59
2022/10/21 13:43:17;;;;;;;2.85;1.63;;;;;;;;;;5117637;28;20736;-58
2022/10/21 13:45:46;;;;;;;1.73;1.30;;;;;;;;;;5117141;28;20218;-58
2022/10/21 13:48:13;;;;;;;2.25;1.58;;;;;;;;;;5117732;28;20272;-58
2022/10/21 13:50:42;;;;;;;5.55;3.70;;;;;;;;;;5117474;28;20211;-58
2022/10/21 13:53:21;;;;;;;1.67;1.58;;;;;;;;;;5117992;28;20697;-60
2022/10/21 13:55:53;;;;;;;3.28;1.83;;;;;;;;;;5118216;28;20199;-60
2022/10/21 13:58:20;;;;;;;3.85;1.55;;;;;;;;;;5118468;28;20211;-60
2022/10/21 14:00:46;;;;;;;4.63;2.03;;;;;;;;;;5118400;28;20230;-58
2022/10/21 14:03:16;;;;;;;2.63;1.60;;;;;;;;;;5123510;27;20217;-58
2022/10/21 14:05:47;;;;;;;5.47;2.00;;;;;;;;;;5122358;27;20405;-58
2022/10/21 14:08:22;;;;;;;17.58;7.57;;;;;;;;;;5138420;27;20544;-58
2022/10/21 14:10:48;;;;;;;8.15;4.70;;;;;;;;;;5139605;27;20517;-57
2022/10/21 14:13:15;;;;;;;2.45;2.20;;;;;;;;;;5138710;27;20517;-58
2022/10/21 14:15:43;;;;;;;1.55;1.35;;;;;;;;;;5133256;27;20206;-57
2022/10/21 14:18:20;;;;;;;4.45;2.60;;;;;;;;;;5121343;27;20203;-57
2022/10/21 14:20:48;;;;;;;3.55;1.20;;;;;;;;;;5118854;28;20229;-58
2022/10/21 14:23:17;;;;;;;2.97;1.45;;;;;;;;;;5118679;27;20211;-58
2022/10/21 14:25:44;;;;;;;4.10;1.15;;;;;;;;;;5118365;28;20214;-58
2022/10/21 14:28:12;;;;;;;4.75;1.75;;;;;;;;;;5117597;28;20301;-58
2022/10/21 14:30:39;;;;;;;0.95;0.85;;;;;;;;;;5118146;28;20270;-57
2022/10/21 14:33:13;;;;;;;3.13;1.05;;;;;;;;;;5118063;27;20727;-57
2022/10/21 14:35:40;;;;;;;1.30;0.70;;;;;;;;;;5134985;27;20202;-60